createdAt,value
2022-11-05T00:01:02.326Z,9.10
2022-11-05T00:03:47.767Z,9.10
2022-11-05T00:06:34.740Z,9.10
2022-11-05T00:09:20.067Z,9.20
2022-11-05T00:12:05.454Z,9.20
2022-11-05T00:14:50.775Z,9.20
2022-11-05T00:17:17.375Z,9.20
2022-11-05T00:19:43.922Z,9.20
2022-11-05T00:22:29.070Z,9.20
2022-11-05T00:25:14.274Z,9.10
2022-11-05T00:27:41.143Z,9.20
2022-11-05T00:30:09.125Z,9.20
2022-11-05T00:32:35.710Z,9.10
2022-11-05T00:35:02.369Z,9.20
2022-11-05T00:37:29.795Z,9.20
2022-11-05T00:39:56.378Z,9.20
2022-11-05T00:42:41.547Z,9.20
2022-11-05T00:45:08.549Z,9.30
2022-11-05T00:47:53.692Z,9.30
2022-11-05T00:50:22.144Z,9.20
2022-11-05T00:52:55.995Z,9.20
2022-11-05T00:55:38.079Z,9.30
2022-11-05T00:58:10.344Z,9.20
2022-11-05T01:00:39.463Z,9.20
2022-11-05T01:03:12.437Z,9.20
2022-11-05T01:05:47.851Z,9.20
2022-11-05T01:08:16.440Z,9.30
2022-11-05T01:10:51.167Z,9.20
2022-11-05T01:13:23.950Z,9.30
2022-11-05T01:15:53.416Z,9.20
2022-11-05T01:18:21.238Z,9.30
2022-11-05T01:20:48.356Z,9.20
2022-11-05T01:23:15.698Z,9.20
2022-11-05T01:25:42.993Z,9.20
2022-11-05T01:28:10.041Z,9.20
2022-11-05T01:30:37.470Z,9.20
2022-11-05T01:33:04.287Z,9.20
2022-11-05T01:35:30.894Z,9.20
2022-11-05T01:37:57.536Z,9.20
2022-11-05T01:40:25.296Z,9.20
2022-11-05T01:42:51.909Z,9.20
2022-11-05T01:45:28.902Z,9.20
2022-11-05T01:48:11.079Z,9.20
2022-11-05T01:50:56.706Z,9.20
2022-11-05T01:53:29.169Z,9.20
2022-11-05T01:56:02.392Z,9.10
2022-11-05T01:58:34.599Z,9.10
2022-11-05T02:01:01.754Z,9.10
2022-11-05T02:03:28.721Z,9.10
2022-11-05T02:05:57.388Z,9.10
2022-11-05T02:08:36.561Z,9.10
2022-11-05T02:11:03.326Z,9.10
2022-11-05T02:13:29.966Z,9.00
2022-11-05T02:16:34.927Z,9.10
2022-11-05T02:19:38.930Z,9.10
2022-11-05T02:22:24.589Z,9.10
2022-11-05T02:24:56.910Z,9.10
2022-11-05T02:27:45.061Z,9.10
2022-11-05T02:30:38.843Z,9.10
2022-11-05T02:33:30.139Z,9.10
2022-11-05T02:36:05.504Z,9.00
2022-11-05T02:38:50.230Z,9.00
2022-11-05T02:41:54.064Z,9.00
2022-11-05T02:45:05.166Z,9.00
2022-11-05T02:47:47.441Z,9.00
2022-11-05T02:50:23.502Z,9.00
2022-11-05T02:53:30.169Z,9.00
2022-11-05T02:56:01.204Z,9.00
2022-11-05T02:58:28.854Z,8.90
2022-11-05T03:00:57.202Z,8.90
2022-11-05T03:03:29.262Z,9.00
2022-11-05T03:06:13.483Z,8.90
2022-11-05T03:09:12.109Z,8.90
2022-11-05T03:12:12.988Z,9.00
2022-11-05T03:15:10.162Z,9.00
2022-11-05T03:17:55.956Z,9.00
2022-11-05T03:20:31.892Z,9.00
2022-11-05T03:23:26.590Z,9.00
2022-11-05T03:26:22.197Z,9.00
2022-11-05T03:28:55.735Z,8.90
2022-11-05T03:31:23.241Z,8.90
2022-11-05T03:33:53.226Z,8.90
2022-11-05T03:36:26.631Z,8.90
2022-11-05T03:38:56.144Z,8.90
2022-11-05T03:41:25.183Z,8.80
2022-11-05T03:43:57.202Z,8.90
2022-11-05T03:46:32.349Z,8.80
2022-11-05T03:49:02.972Z,8.90
2022-11-05T03:51:43.085Z,8.80
2022-11-05T03:54:10.688Z,8.80
2022-11-05T03:57:14.855Z,8.80
2022-11-05T03:59:45.084Z,8.80
2022-11-05T04:02:14.595Z,8.80
2022-11-05T04:04:41.611Z,8.70
2022-11-05T04:07:28.708Z,8.70
2022-11-05T04:10:14.229Z,8.80
2022-11-05T04:12:59.609Z,8.60
2022-11-05T04:15:26.955Z,8.60
2022-11-05T04:17:53.950Z,8.60
2022-11-05T04:20:39.086Z,8.60
2022-11-05T04:23:26.047Z,8.50
2022-11-05T04:25:52.635Z,8.50
2022-11-05T04:28:19.268Z,8.50
2022-11-05T04:30:45.908Z,8.50
2022-11-05T04:33:17.140Z,8.60
2022-11-05T04:35:45.182Z,8.50
2022-11-05T04:38:14.816Z,8.50
2022-11-05T04:40:42.052Z,8.50
2022-11-05T04:43:14.882Z,8.50
2022-11-05T04:45:42.477Z,8.40
2022-11-05T04:48:09.373Z,8.40
2022-11-05T04:50:36.285Z,8.40
2022-11-05T04:53:03.103Z,8.40
2022-11-05T04:55:29.934Z,8.30
2022-11-05T04:57:56.527Z,8.30
2022-11-05T05:00:24.252Z,8.40
2022-11-05T05:02:51.008Z,8.30
2022-11-05T05:05:17.727Z,8.20
2022-11-05T05:07:44.430Z,8.30
2022-11-05T05:10:11.795Z,8.30
2022-11-05T05:12:38.527Z,8.30
2022-11-05T05:15:05.942Z,8.20
2022-11-05T05:17:32.591Z,8.20
2022-11-05T05:20:17.863Z,8.20
2022-11-05T05:22:50.759Z,8.10
2022-11-05T05:25:17.481Z,8.10
2022-11-05T05:27:44.059Z,8.10
2022-11-05T05:30:11.065Z,8.10
2022-11-05T05:32:37.758Z,8.10
2022-11-05T05:35:04.614Z,8.10
2022-11-05T05:37:31.229Z,8.20
2022-11-05T05:39:57.872Z,8.10
2022-11-05T05:42:24.500Z,8.20
2022-11-05T05:44:51.274Z,8.20
2022-11-05T05:47:17.840Z,8.10
2022-11-05T05:49:44.482Z,8.10
2022-11-05T05:52:11.051Z,8.10
2022-11-05T05:54:42.428Z,8.10
2022-11-05T05:57:09.752Z,8.10
2022-11-05T05:59:36.371Z,8.10
2022-11-05T06:02:03.142Z,8.00
2022-11-05T06:04:30.078Z,8.00
2022-11-05T06:06:56.661Z,8.10
2022-11-05T06:09:23.247Z,8.00
2022-11-05T06:11:49.998Z,8.00
2022-11-05T06:14:16.593Z,8.00
2022-11-05T06:16:43.189Z,8.00
2022-11-05T06:19:09.980Z,8.00
2022-11-05T06:21:36.644Z,8.00
2022-11-05T06:24:03.563Z,8.00
2022-11-05T06:26:30.592Z,7.90
2022-11-05T06:28:57.368Z,7.90
2022-11-05T06:31:24.304Z,8.00
2022-11-05T06:33:51.049Z,8.00
2022-11-05T06:36:19.190Z,8.00
2022-11-05T06:38:46.023Z,8.00
2022-11-05T06:41:12.719Z,8.00
2022-11-05T06:43:39.499Z,8.10
2022-11-05T06:46:06.690Z,8.10
2022-11-05T06:48:33.471Z,8.10
2022-11-05T06:51:00.127Z,8.10
2022-11-05T06:53:27.340Z,8.10
2022-11-05T06:55:53.959Z,8.20
2022-11-05T06:58:20.721Z,8.20
2022-11-05T07:00:47.664Z,8.10
2022-11-05T07:03:15.121Z,8.20
2022-11-05T07:05:46.448Z,8.20
2022-11-05T07:08:13.461Z,8.20
2022-11-05T07:10:40.030Z,8.20
2022-11-05T07:13:08.346Z,8.20
2022-11-05T07:15:35.904Z,8.20
2022-11-05T07:18:02.661Z,8.20
2022-11-05T07:20:33.567Z,8.30
2022-11-05T07:23:02.508Z,8.30
2022-11-05T07:25:31.078Z,8.30
2022-11-05T07:27:57.899Z,8.40
2022-11-05T07:30:24.969Z,8.40
2022-11-05T07:32:51.765Z,8.40
2022-11-05T07:35:18.404Z,8.40
2022-11-05T07:37:55.399Z,8.50
2022-11-05T07:40:23.809Z,8.50
2022-11-05T07:42:52.717Z,8.50
2022-11-05T07:45:19.890Z,8.50
2022-11-05T07:47:48.419Z,8.60
2022-11-05T07:50:19.895Z,8.60
2022-11-05T07:52:47.971Z,8.60
2022-11-05T07:55:15.704Z,8.70
2022-11-05T07:57:43.931Z,8.60
2022-11-05T08:00:14.218Z,8.70
2022-11-05T08:02:42.196Z,8.70
2022-11-05T08:05:09.591Z,8.70
2022-11-05T08:07:36.455Z,8.70
2022-11-05T08:10:04.245Z,8.70
2022-11-05T08:12:32.226Z,8.80
2022-11-05T08:14:58.975Z,8.80
2022-11-05T08:17:25.708Z,8.80
2022-11-05T08:19:52.459Z,8.80
2022-11-05T08:22:19.054Z,8.80
2022-11-05T08:24:45.673Z,8.90
2022-11-05T08:27:12.758Z,8.90
2022-11-05T08:29:39.349Z,8.90
2022-11-05T08:32:05.930Z,8.90
2022-11-05T08:34:32.570Z,8.80
2022-11-05T08:37:01.450Z,8.80
2022-11-05T08:39:28.052Z,9.00
2022-11-05T08:41:54.769Z,8.90
2022-11-05T08:44:21.343Z,8.90
2022-11-05T08:46:48.208Z,8.90
2022-11-05T08:49:14.791Z,8.80
2022-11-05T08:51:41.510Z,8.90
2022-11-05T08:54:08.098Z,8.90
2022-11-05T08:56:34.863Z,8.90
2022-11-05T08:59:01.500Z,9.00
2022-11-05T09:01:28.188Z,9.00
2022-11-05T09:03:54.966Z,9.00
2022-11-05T09:06:21.847Z,9.00
2022-11-05T09:08:48.527Z,9.00
2022-11-05T09:11:15.163Z,9.10
2022-11-05T09:13:41.898Z,9.30
2022-11-05T09:16:22.398Z,9.40
2022-11-05T09:18:50.134Z,9.50
2022-11-05T09:21:17.652Z,9.60
2022-11-05T09:23:45.291Z,9.70
2022-11-05T09:26:13.453Z,9.70
2022-11-05T09:28:40.156Z,9.60
2022-11-05T09:31:08.899Z,9.70
2022-11-05T09:33:37.208Z,9.70
2022-11-05T09:36:04.864Z,9.80
2022-11-05T09:38:34.850Z,9.90
2022-11-05T09:41:17.163Z,10.00
2022-11-05T09:43:51.500Z,10.00
2022-11-05T09:46:56.519Z,10.00
2022-11-05T09:49:40.018Z,9.90
2022-11-05T09:52:13.244Z,9.90
2022-11-05T09:54:40.222Z,9.90
2022-11-05T09:57:11.646Z,9.80
2022-11-05T09:59:47.090Z,9.70
2022-11-05T10:02:20.770Z,9.70
2022-11-05T10:04:51.014Z,9.80
2022-11-05T10:07:23.032Z,9.80
2022-11-05T10:10:01.839Z,9.80
2022-11-05T10:12:42.024Z,9.90
2022-11-05T10:15:17.909Z,9.90
2022-11-05T10:18:16.886Z,10.00
2022-11-05T10:20:44.549Z,10.10
2022-11-05T10:23:20.047Z,10.30
2022-11-05T10:26:01.547Z,10.30
2022-11-05T10:28:30.698Z,10.40
2022-11-05T10:31:03.698Z,10.60
2022-11-05T10:33:54.219Z,10.60
2022-11-05T10:36:32.867Z,10.50
2022-11-05T10:39:12.441Z,10.60
2022-11-05T10:42:15.798Z,10.80
2022-11-05T10:45:14.398Z,10.90
2022-11-05T10:47:46.905Z,11.00
2022-11-05T10:50:18.568Z,11.00
2022-11-05T10:53:02.417Z,11.10
2022-11-05T10:55:32.710Z,11.20
2022-11-05T10:58:17.407Z,11.60
2022-11-05T11:00:46.530Z,11.90
2022-11-05T11:03:32.206Z,12.10
2022-11-05T11:06:04.897Z,12.40
2022-11-05T11:08:35.606Z,12.60
2022-11-05T11:11:10.271Z,12.80
2022-11-05T11:13:58.935Z,13.00
2022-11-05T11:16:27.898Z,13.50
2022-11-05T11:19:00.881Z,13.60
2022-11-05T11:21:29.780Z,13.90
2022-11-05T11:24:03.556Z,14.00
2022-11-05T11:26:33.763Z,14.00
2022-11-05T11:29:07.411Z,13.80
2022-11-05T11:31:38.358Z,13.90
2022-11-05T11:34:07.618Z,14.00
2022-11-05T11:36:46.898Z,14.30
2022-11-05T11:39:22.316Z,14.60
2022-11-05T11:41:54.881Z,14.80
2022-11-05T11:44:27.194Z,14.70
2022-11-05T11:46:58.014Z,14.80
2022-11-05T11:49:30.600Z,14.70
2022-11-05T11:52:04.780Z,14.60
2022-11-05T11:54:32.721Z,14.90
2022-11-05T11:56:59.877Z,15.10
2022-11-05T11:59:53.777Z,15.20
2022-11-05T12:02:27.422Z,15.20
2022-11-05T12:05:04.385Z,14.90
2022-11-05T12:07:49.694Z,15.00
2022-11-05T12:10:35.545Z,14.90
2022-11-05T12:13:44.145Z,14.20
2022-11-05T12:16:22.584Z,13.60
2022-11-05T12:19:03.375Z,13.30
2022-11-05T12:21:59.192Z,13.20
2022-11-05T12:25:08.751Z,13.00
2022-11-05T12:28:01.378Z,13.00
2022-11-05T12:30:38.946Z,13.30
2022-11-05T12:33:40.898Z,13.40
2022-11-05T12:36:34.064Z,13.70
2022-11-05T12:39:20.239Z,14.00
2022-11-05T12:42:01.883Z,14.50
2022-11-05T12:45:01.497Z,14.70
2022-11-05T12:47:47.025Z,14.80
2022-11-05T12:50:33.451Z,14.60
2022-11-05T12:53:28.235Z,14.30
2022-11-05T12:55:56.650Z,13.90
2022-11-05T12:58:37.116Z,13.60
2022-11-05T13:01:17.473Z,13.30
2022-11-05T13:03:52.121Z,13.50
2022-11-05T13:06:27.725Z,13.80
2022-11-05T13:09:12.847Z,14.10
2022-11-05T13:11:51.786Z,14.50
2022-11-05T13:14:26.926Z,14.80
2022-11-05T13:17:02.371Z,15.10
2022-11-05T13:19:34.802Z,15.20
2022-11-05T13:22:13.253Z,15.40
2022-11-05T13:24:50.896Z,15.50
2022-11-05T13:27:50.446Z,15.70
2022-11-05T13:30:22.986Z,15.80
2022-11-05T13:32:58.070Z,15.60
2022-11-05T13:35:37.379Z,15.60
2022-11-05T13:38:26.043Z,15.70
2022-11-05T13:41:14.303Z,15.70
2022-11-05T13:43:40.930Z,15.70
2022-11-05T13:46:49.380Z,15.60
2022-11-05T13:49:30.523Z,15.40
2022-11-05T13:52:28.037Z,15.30
2022-11-05T13:55:21.777Z,14.90
2022-11-05T13:58:26.562Z,14.90
2022-11-05T14:05:01.022Z,14.90
2022-11-05T14:07:31.535Z,14.50
2022-11-05T14:10:14.231Z,14.30
2022-11-05T14:12:41.419Z,14.10
2022-11-05T14:15:36.524Z,13.80
2022-11-05T14:18:06.158Z,13.60
2022-11-05T14:20:32.673Z,13.30
2022-11-05T14:23:17.766Z,13.10
2022-11-05T14:25:44.331Z,12.80
2022-11-05T14:28:35.032Z,12.60
2022-11-05T14:31:31.416Z,12.60
2022-11-05T14:34:10.954Z,12.70
2022-11-05T14:36:39.601Z,12.70
2022-11-05T14:39:25.163Z,12.80
2022-11-05T14:42:03.407Z,12.70
2022-11-05T14:44:35.350Z,12.70
2022-11-05T14:47:05.253Z,12.70
2022-11-05T14:49:47.743Z,12.50
2022-11-05T14:52:16.777Z,12.30
2022-11-05T14:54:52.574Z,12.10
2022-11-05T14:57:41.906Z,12.00
2022-11-05T15:00:32.302Z,11.80
2022-11-05T15:03:04.326Z,11.60
2022-11-05T15:05:38.685Z,11.50
2022-11-05T15:08:26.247Z,11.40
2022-11-05T15:11:06.534Z,11.20
2022-11-05T15:13:38.490Z,11.00
2022-11-05T15:16:06.932Z,10.80
2022-11-05T15:18:43.735Z,10.70
2022-11-05T15:21:15.060Z,10.60
2022-11-05T15:23:43.982Z,10.40
2022-11-05T15:26:22.791Z,10.30
2022-11-05T15:28:54.137Z,10.20
2022-11-05T15:31:28.527Z,10.10
2022-11-05T15:34:20.852Z,10.00
2022-11-05T15:37:00.127Z,9.90
2022-11-05T15:39:32.789Z,9.80
2022-11-05T15:42:04.752Z,9.70
2022-11-05T15:44:39.582Z,9.50
2022-11-05T15:47:24.860Z,9.40
2022-11-05T15:49:59.450Z,9.30
2022-11-05T15:52:37.273Z,9.20
2022-11-05T15:55:12.878Z,9.10
2022-11-05T15:57:56.724Z,9.00
2022-11-05T16:00:26.017Z,8.90
2022-11-05T16:02:57.128Z,8.90
2022-11-05T16:05:26.982Z,8.80
2022-11-05T16:07:53.841Z,8.70
2022-11-05T16:10:29.727Z,8.60
2022-11-05T16:12:56.671Z,8.50
2022-11-05T16:15:26.212Z,8.40
2022-11-05T16:17:58.505Z,8.40
2022-11-05T16:20:36.139Z,8.40
2022-11-05T16:23:06.028Z,8.20
2022-11-05T16:25:41.446Z,8.20
2022-11-05T16:28:24.345Z,8.20
2022-11-05T16:31:02.539Z,8.10
2022-11-05T16:33:40.117Z,8.10
2022-11-05T16:36:08.315Z,8.00
2022-11-05T16:38:34.992Z,7.90
2022-11-05T16:41:01.606Z,7.90
2022-11-05T16:43:28.311Z,7.80
2022-11-05T16:45:59.249Z,7.80
2022-11-05T16:48:27.169Z,7.70
2022-11-05T16:50:54.145Z,7.70
2022-11-05T16:53:20.846Z,7.60
2022-11-05T16:55:47.781Z,7.50
2022-11-05T16:58:23.066Z,7.50
2022-11-05T17:00:51.782Z,7.40
2022-11-05T17:03:18.935Z,7.40
2022-11-05T17:05:45.670Z,7.30
2022-11-05T17:08:12.565Z,7.20
2022-11-05T17:10:39.286Z,7.20
2022-11-05T17:13:05.902Z,7.10
2022-11-05T17:15:35.466Z,7.10
2022-11-05T17:18:03.763Z,7.00
2022-11-05T17:20:40.898Z,7.00
2022-11-05T17:23:13.202Z,7.00
2022-11-05T17:25:41.764Z,7.00
2022-11-05T17:28:09.912Z,6.90
2022-11-05T17:30:38.601Z,6.90
2022-11-05T17:33:07.027Z,6.90
2022-11-05T17:35:33.740Z,6.80
2022-11-05T17:38:00.541Z,6.80
2022-11-05T17:40:28.335Z,6.70
2022-11-05T17:42:54.950Z,6.70
2022-11-05T17:45:21.770Z,6.60
2022-11-05T17:47:48.380Z,6.50
2022-11-05T17:50:16.064Z,6.40
2022-11-05T17:52:43.401Z,6.40
2022-11-05T17:55:17.438Z,6.40
2022-11-05T17:57:49.789Z,6.30
2022-11-05T18:00:19.698Z,6.30
2022-11-05T18:02:48.318Z,6.20
2022-11-05T18:05:16.336Z,6.20
2022-11-05T18:07:43.757Z,6.20
2022-11-05T18:10:10.545Z,6.20
2022-11-05T18:12:37.224Z,6.20
2022-11-05T18:15:04.688Z,6.20
2022-11-05T18:17:31.337Z,6.10
2022-11-05T18:19:58.353Z,6.10
2022-11-05T18:22:26.544Z,6.00
2022-11-05T18:24:54.337Z,5.90
2022-11-05T18:27:24.395Z,5.90
2022-11-05T18:29:51.213Z,5.90
2022-11-05T18:32:17.918Z,5.90
2022-11-05T18:34:44.693Z,5.90
2022-11-05T18:37:11.434Z,5.80
2022-11-05T18:39:38.370Z,5.80
2022-11-05T18:42:05.079Z,5.80
2022-11-05T18:44:37.837Z,5.70
2022-11-05T18:47:06.757Z,5.70
2022-11-05T18:49:33.382Z,5.70
2022-11-05T18:52:00.032Z,5.60
2022-11-05T18:54:26.779Z,5.60
2022-11-05T18:56:53.424Z,5.60
2022-11-05T18:59:39.095Z,5.50
2022-11-05T19:02:07.803Z,5.60
2022-11-05T19:04:38.394Z,5.50
2022-11-05T19:07:06.287Z,5.50
2022-11-05T19:09:37.816Z,5.40
2022-11-05T19:12:06.286Z,5.40
2022-11-05T19:14:33.305Z,5.40
2022-11-05T19:17:00.524Z,5.40
2022-11-05T19:19:27.677Z,5.30
2022-11-05T19:21:54.340Z,5.30
2022-11-05T19:24:20.919Z,5.30
2022-11-05T19:26:47.998Z,5.30
2022-11-05T19:29:14.621Z,5.20
2022-11-05T19:31:41.283Z,5.20
2022-11-05T19:34:08.232Z,5.20
2022-11-05T19:36:34.987Z,5.20
2022-11-05T19:39:06.282Z,5.20
2022-11-05T19:41:33.004Z,5.20
2022-11-05T19:44:01.685Z,5.20
2022-11-05T19:46:29.703Z,5.10
2022-11-05T19:48:57.339Z,5.10
2022-11-05T19:51:26.519Z,5.00
2022-11-05T19:53:54.994Z,5.00
2022-11-05T19:56:27.578Z,5.00
2022-11-05T19:58:54.437Z,4.90
2022-11-05T20:01:23.728Z,4.90
2022-11-05T20:03:51.295Z,4.80
2022-11-05T20:06:21.092Z,4.80
2022-11-05T20:09:15.269Z,4.80
2022-11-05T20:11:39.207Z,4.70
2022-11-05T20:14:07.263Z,4.70
2022-11-05T20:16:38.129Z,4.70
2022-11-05T20:19:06.950Z,4.60
2022-11-05T20:21:34.557Z,4.60
2022-11-05T20:24:01.578Z,4.60
2022-11-05T20:26:28.781Z,4.60
2022-11-05T20:28:55.652Z,4.60
2022-11-05T20:31:22.743Z,4.60
2022-11-05T20:33:49.519Z,4.60
2022-11-05T20:36:19.641Z,4.60
2022-11-05T20:38:51.351Z,4.50
2022-11-05T20:41:18.585Z,4.50
2022-11-05T20:43:46.780Z,4.40
2022-11-05T20:46:15.648Z,4.40
2022-11-05T20:48:42.985Z,4.40
2022-11-05T20:51:12.641Z,4.30
2022-11-05T20:53:39.459Z,4.30
2022-11-05T20:56:10.205Z,4.30
2022-11-05T20:58:38.040Z,4.20
2022-11-05T21:01:05.702Z,4.20
2022-11-05T21:03:32.892Z,4.20
2022-11-05T21:06:04.080Z,4.10
2022-11-05T21:08:31.019Z,4.10
2022-11-05T21:10:58.188Z,4.10
2022-11-05T21:13:25.483Z,4.10
2022-11-05T21:15:54.600Z,4.00
2022-11-05T21:18:23.454Z,4.00
2022-11-05T21:20:50.643Z,4.00
2022-11-05T21:23:17.854Z,3.90
2022-11-05T21:25:44.866Z,3.90
2022-11-05T21:28:13.486Z,3.90
2022-11-05T21:30:44.864Z,3.90
2022-11-05T21:33:13.405Z,4.00
2022-11-05T21:35:44.959Z,3.90
2022-11-05T21:38:13.806Z,3.90
2022-11-05T21:40:41.019Z,3.90
2022-11-05T21:43:08.069Z,3.90
2022-11-05T21:45:35.081Z,3.90
2022-11-05T21:48:01.848Z,3.80
2022-11-05T21:50:46.970Z,3.80
2022-11-05T21:53:33.767Z,3.70
2022-11-05T21:56:19.821Z,3.70
2022-11-05T21:59:05.103Z,3.70
2022-11-05T22:01:31.859Z,3.70
2022-11-05T22:04:02.835Z,3.70
2022-11-05T22:06:32.740Z,3.70
2022-11-05T22:08:59.376Z,3.70
2022-11-05T22:11:25.991Z,3.70
2022-11-05T22:13:53.305Z,3.60
2022-11-05T22:16:19.910Z,3.70
2022-11-05T22:18:46.507Z,3.70
2022-11-05T22:21:19.412Z,3.60
2022-11-05T22:23:46.472Z,3.60
2022-11-05T22:26:13.108Z,3.60
2022-11-05T22:28:39.699Z,3.60
2022-11-05T22:31:15.468Z,3.60
2022-11-05T22:33:42.870Z,3.60
2022-11-05T22:36:10.652Z,3.50
2022-11-05T22:38:37.355Z,3.50
2022-11-05T22:41:12.240Z,3.50
2022-11-05T22:43:39.111Z,3.50
2022-11-05T22:46:08.558Z,3.40
2022-11-05T22:48:36.256Z,3.50
2022-11-05T22:51:11.072Z,3.40
2022-11-05T22:53:38.879Z,3.40
2022-11-05T22:56:07.910Z,3.40
2022-11-05T22:58:34.576Z,3.40
2022-11-05T23:01:02.069Z,3.40
2022-11-05T23:03:30.055Z,3.30
2022-11-05T23:06:01.713Z,3.30
2022-11-05T23:08:46.856Z,3.30
2022-11-05T23:11:38.518Z,3.30
2022-11-05T23:14:07.490Z,3.30
2022-11-05T23:16:53.252Z,3.20
2022-11-05T23:19:39.383Z,3.20
2022-11-05T23:22:30.087Z,3.20
2022-11-05T23:24:56.867Z,3.20
2022-11-05T23:27:23.899Z,3.20
2022-11-05T23:29:50.531Z,3.20
2022-11-05T23:32:26.178Z,3.20
2022-11-05T23:34:54.170Z,3.20
2022-11-05T23:37:40.755Z,3.20
2022-11-05T23:40:10.535Z,3.20
2022-11-05T23:42:55.611Z,3.20
2022-11-05T23:45:41.170Z,3.10
2022-11-05T23:48:34.918Z,3.20
2022-11-05T23:51:08.877Z,3.10
2022-11-05T23:53:37.859Z,3.10
2022-11-05T23:56:08.319Z,3.10
2022-11-05T23:58:36.346Z,3.10
